sensor_id;sensor_type;location;lat;lon;timestamp;pressure;altitude;pressure_sealevel;temperature;humidity
6464;BME280;3265;42.694;23.282;2022-09-09T00:01:58;94927.78;;;19.33;88.05
6464;BME280;3265;42.694;23.282;2022-09-09T00:04:27;94930.44;;;19.17;89.21
6464;BME280;3265;42.694;23.282;2022-09-09T00:07:03;94934.38;;;19.20;89.07
6464;BME280;3265;42.694;23.282;2022-09-09T00:09:38;94926.22;;;19.11;90.01
6464;BME280;3265;42.694;23.282;2022-09-09T00:13:32;94918.56;;;19.05;90.19
6464;BME280;3265;42.694;23.282;2022-09-09T00:15:36;94923.59;;;19.06;90.05
6464;BME280;3265;42.694;23.282;2022-09-09T00:18:14;94917.00;;;19.09;89.73
6464;BME280;3265;42.694;23.282;2022-09-09T00:20:46;94916.44;;;19.02;90.22
6464;BME280;3265;42.694;23.282;2022-09-09T00:23:24;94908.56;;;19.02;91.00
6464;BME280;3265;42.694;23.282;2022-09-09T00:25:59;94908.28;;;19.08;90.79
6464;BME280;3265;42.694;23.282;2022-09-09T00:28:31;94902.50;;;19.06;90.79
6464;BME280;3265;42.694;23.282;2022-09-09T00:31:01;94888.56;;;18.96;91.01
6464;BME280;3265;42.694;23.282;2022-09-09T00:33:36;94899.34;;;18.94;92.02
6464;BME280;3265;42.694;23.282;2022-09-09T00:36:12;94881.69;;;18.85;92.72
6464;BME280;3265;42.694;23.282;2022-09-09T00:38:45;94883.03;;;18.87;92.99
6464;BME280;3265;42.694;23.282;2022-09-09T00:41:18;94878.28;;;18.84;93.59
6464;BME280;3265;42.694;23.282;2022-09-09T00:43:55;94883.03;;;18.87;93.60
6464;BME280;3265;42.694;23.282;2022-09-09T00:46:41;94885.38;;;18.84;93.71
6464;BME280;3265;42.694;23.282;2022-09-09T00:49:22;94891.69;;;18.78;93.94
6464;BME280;3265;42.694;23.282;2022-09-09T00:52:01;94887.47;;;18.82;93.49
6464;BME280;3265;42.694;23.282;2022-09-09T00:54:46;94885.88;;;18.70;94.37
6464;BME280;3265;42.694;23.282;2022-09-09T00:57:25;94879.31;;;18.68;95.03
6464;BME280;3265;42.694;23.282;2022-09-09T01:00:14;94883.53;;;18.69;95.25
6464;BME280;3265;42.694;23.282;2022-09-09T01:02:50;94885.88;;;18.70;95.21
6464;BME280;3265;42.694;23.282;2022-09-09T01:05:29;94886.44;;;18.73;94.94
6464;BME280;3265;42.694;23.282;2022-09-09T01:07:58;94876.44;;;18.69;94.21
6464;BME280;3265;42.694;23.282;2022-09-09T01:10:36;94878.78;;;18.71;94.32
6464;BME280;3265;42.694;23.282;2022-09-09T01:13:13;94885.66;;;18.72;94.50
6464;BME280;3265;42.694;23.282;2022-09-09T01:15:43;94893.28;;;18.79;93.40
6464;BME280;3265;42.694;23.282;2022-09-09T01:18:13;94895.66;;;18.75;93.44
6464;BME280;3265;42.694;23.282;2022-09-09T01:20:47;94891.94;;;18.71;94.06
6464;BME280;3265;42.694;23.282;2022-09-09T01:23:33;94890.91;;;18.67;94.42
6464;BME280;3265;42.694;23.282;2022-09-09T01:26:18;94881.16;;;18.62;94.51
6464;BME280;3265;42.694;23.282;2022-09-09T01:28:47;94881.94;;;18.63;94.45
6464;BME280;3265;42.694;23.282;2022-09-09T01:31:18;94884.06;;;18.61;94.91
6464;BME280;3265;42.694;23.282;2022-09-09T01:33:46;94891.44;;;18.64;93.65
6464;BME280;3265;42.694;23.282;2022-09-09T01:36:19;94891.97;;;18.61;93.84
6464;BME280;3265;42.694;23.282;2022-09-09T01:38:47;94895.34;;;18.61;92.87
6464;BME280;3265;42.694;23.282;2022-09-09T01:41:15;94897.47;;;18.54;93.52
6464;BME280;3265;42.694;23.282;2022-09-09T01:43:42;94894.31;;;18.52;93.89
6464;BME280;3265;42.694;23.282;2022-09-09T01:46:09;94900.63;;;18.51;93.47
6464;BME280;3265;42.694;23.282;2022-09-09T01:48:39;94898.75;;;18.47;93.63
6464;BME280;3265;42.694;23.282;2022-09-09T01:51:07;94904.25;;;18.40;94.30
6464;BME280;3265;42.694;23.282;2022-09-09T01:53:34;94910.56;;;18.39;93.57
6464;BME280;3265;42.694;23.282;2022-09-09T01:56:07;94905.53;;;18.33;93.63
6464;BME280;3265;42.694;23.282;2022-09-09T01:58:47;94912.09;;;18.25;94.56
6464;BME280;3265;42.694;23.282;2022-09-09T02:01:26;94898.72;;;18.27;93.36
6464;BME280;3265;42.694;23.282;2022-09-09T02:03:57;94903.13;;;18.21;93.90
6464;BME280;3265;42.694;23.282;2022-09-09T02:06:28;94901.28;;;18.17;94.60
6464;BME280;3265;42.694;23.282;2022-09-09T02:08:57;94903.63;;;18.13;94.20
6464;BME280;3265;42.694;23.282;2022-09-09T02:11:28;94882.03;;;18.01;94.90
6464;BME280;3265;42.694;23.282;2022-09-09T02:14:00;94871.81;;;18.14;95.21
6464;BME280;3265;42.694;23.282;2022-09-09T02:16:31;94885.50;;;18.22;94.93
6464;BME280;3265;42.694;23.282;2022-09-09T02:19:02;94884.94;;;18.09;95.65
6464;BME280;3265;42.694;23.282;2022-09-09T02:21:32;94886.00;;;18.03;96.37
6464;BME280;3265;42.694;23.282;2022-09-09T02:24:02;94886.53;;;18.05;96.13
6464;BME280;3265;42.694;23.282;2022-09-09T02:26:31;94890.97;;;18.00;96.55
6464;BME280;3265;42.694;23.282;2022-09-09T02:29:02;94890.44;;;17.98;96.17
6464;BME280;3265;42.694;23.282;2022-09-09T02:31:30;94900.19;;;17.97;96.54
6464;BME280;3265;42.694;23.282;2022-09-09T02:34:00;94880.69;;;17.88;96.95
6464;BME280;3265;42.694;23.282;2022-09-09T02:36:31;94897.00;;;17.95;97.11
6464;BME280;3265;42.694;23.282;2022-09-09T02:39:00;94899.88;;;17.89;96.85
6464;BME280;3265;42.694;23.282;2022-09-09T02:41:31;94906.47;;;17.86;97.61
6464;BME280;3265;42.694;23.282;2022-09-09T02:43:58;94902.75;;;17.87;96.93
6464;BME280;3265;42.694;23.282;2022-09-09T02:46:36;94905.38;;;17.82;97.03
6464;BME280;3265;42.694;23.282;2022-09-09T02:49:10;94906.69;;;17.85;97.30
6464;BME280;3265;42.694;23.282;2022-09-09T02:51:46;94906.16;;;17.83;97.09
6464;BME280;3265;42.694;23.282;2022-09-09T02:54:22;94894.06;;;17.82;97.32
6464;BME280;3265;42.694;23.282;2022-09-09T02:56:53;94890.91;;;17.80;97.47
6464;BME280;3265;42.694;23.282;2022-09-09T02:59:22;94902.75;;;17.82;97.02
6464;BME280;3265;42.694;23.282;2022-09-09T03:01:52;94908.53;;;17.84;96.96
6464;BME280;3265;42.694;23.282;2022-09-09T03:04:19;94908.00;;;17.87;95.35
6464;BME280;3265;42.694;23.282;2022-09-09T03:06:46;94904.84;;;17.80;94.75
6464;BME280;3265;42.694;23.282;2022-09-09T03:09:13;94901.91;;;17.72;95.42
6464;BME280;3265;42.694;23.282;2022-09-09T03:11:40;94905.81;;;17.69;96.28
6464;BME280;3265;42.694;23.282;2022-09-09T03:14:07;94907.63;;;17.64;96.94
6464;BME280;3265;42.694;23.282;2022-09-09T03:16:34;94904.50;;;17.67;97.14
6464;BME280;3265;42.694;23.282;2022-09-09T03:19:02;94905.28;;;17.67;97.10
6464;BME280;3265;42.694;23.282;2022-09-09T03:21:29;94904.75;;;17.65;97.51
6464;BME280;3265;42.694;23.282;2022-09-09T03:23:56;94900.06;;;17.72;97.60
6464;BME280;3265;42.694;23.282;2022-09-09T03:26:23;94895.59;;;17.73;96.96
6464;BME280;3265;42.694;23.282;2022-09-09T03:28:50;94898.78;;;17.75;96.07
6464;BME280;3265;42.694;23.282;2022-09-09T03:31:18;94901.13;;;17.71;96.13
6464;BME280;3265;42.694;23.282;2022-09-09T03:33:44;94902.16;;;17.70;96.13
6464;BME280;3265;42.694;23.282;2022-09-09T03:36:13;94897.69;;;17.66;96.89
6464;BME280;3265;42.694;23.282;2022-09-09T03:38:40;94894.25;;;17.65;97.53
6464;BME280;3265;42.694;23.282;2022-09-09T03:41:07;94902.13;;;17.65;97.66
6464;BME280;3265;42.694;23.282;2022-09-09T03:43:34;94892.66;;;17.64;97.81
6464;BME280;3265;42.694;23.282;2022-09-09T03:46:01;94896.59;;;17.62;97.71
6464;BME280;3265;42.694;23.282;2022-09-09T03:48:30;94903.16;;;17.59;97.98
6464;BME280;3265;42.694;23.282;2022-09-09T03:50:56;94905.81;;;17.64;98.25
6464;BME280;3265;42.694;23.282;2022-09-09T03:53:29;94903.69;;;17.61;98.42
6464;BME280;3265;42.694;23.282;2022-09-09T03:55:56;94912.38;;;17.62;98.54
6464;BME280;3265;42.694;23.282;2022-09-09T03:58:26;94906.03;;;17.57;98.39
6464;BME280;3265;42.694;23.282;2022-09-09T04:00:55;94901.50;;;17.53;98.39
6464;BME280;3265;42.694;23.282;2022-09-09T04:03:23;94909.91;;;17.50;98.92
6464;BME280;3265;42.694;23.282;2022-09-09T04:05:51;94909.41;;;17.53;98.78
6464;BME280;3265;42.694;23.282;2022-09-09T04:08:18;94914.91;;;17.51;99.14
6464;BME280;3265;42.694;23.282;2022-09-09T04:10:47;94908.84;;;17.46;98.97
6464;BME280;3265;42.694;23.282;2022-09-09T04:13:15;94915.13;;;17.45;98.28
6464;BME280;3265;42.694;23.282;2022-09-09T04:15:43;94904.00;;;17.33;98.49
6464;BME280;3265;42.694;23.282;2022-09-09T04:18:10;94908.75;;;17.36;99.07
6464;BME280;3265;42.694;23.282;2022-09-09T04:20:37;94907.47;;;17.38;99.12
6464;BME280;3265;42.694;23.282;2022-09-09T04:23:05;94899.34;;;17.40;98.92
6464;BME280;3265;42.694;23.282;2022-09-09T04:25:33;94904.84;;;17.38;99.45
6464;BME280;3265;42.694;23.282;2022-09-09T04:28:03;94911.69;;;17.39;100.00
6464;BME280;3265;42.694;23.282;2022-09-09T04:30:30;94921.13;;;17.40;99.66
6464;BME280;3265;42.694;23.282;2022-09-09T04:32:57;94918.78;;;17.44;98.84
6464;BME280;3265;42.694;23.282;2022-09-09T04:35:25;94912.50;;;17.45;98.81
6464;BME280;3265;42.694;23.282;2022-09-09T04:37:53;94918.28;;;17.47;99.02
6464;BME280;3265;42.694;23.282;2022-09-09T04:40:20;94918.19;;;17.32;100.00
6464;BME280;3265;42.694;23.282;2022-09-09T04:42:50;94920.56;;;17.28;100.00
6464;BME280;3265;42.694;23.282;2022-09-09T04:45:19;94912.44;;;17.35;100.00
6464;BME280;3265;42.694;23.282;2022-09-09T04:47:45;94910.59;;;17.35;100.00
6464;BME280;3265;42.694;23.282;2022-09-09T04:50:13;94907.72;;;17.37;100.00
6464;BME280;3265;42.694;23.282;2022-09-09T04:52:40;94903.53;;;17.41;100.00
6464;BME280;3265;42.694;23.282;2022-09-09T04:55:07;94896.53;;;17.51;100.00
6464;BME280;3265;42.694;23.282;2022-09-09T04:57:35;94900.50;;;17.54;100.00
6464;BME280;3265;42.694;23.282;2022-09-09T05:00:03;94909.75;;;17.67;100.00
6464;BME280;3265;42.694;23.282;2022-09-09T05:02:32;94904.53;;;17.72;100.00
6464;BME280;3265;42.694;23.282;2022-09-09T05:04:58;94901.91;;;17.72;100.00
6464;BME280;3265;42.694;23.282;2022-09-09T05:07:26;94881.94;;;17.76;100.00
6464;BME280;3265;42.694;23.282;2022-09-09T05:09:54;94877.19;;;17.78;99.91
6464;BME280;3265;42.694;23.282;2022-09-09T05:12:21;94886.47;;;17.85;100.00
6464;BME280;3265;42.694;23.282;2022-09-09T05:14:49;94903.31;;;17.94;100.00
6464;BME280;3265;42.694;23.282;2022-09-09T05:17:16;94909.13;;;18.01;99.79
6464;BME280;3265;42.694;23.282;2022-09-09T05:19:44;94899.69;;;18.05;99.02
6464;BME280;3265;42.694;23.282;2022-09-09T05:22:11;94888.88;;;18.07;98.89
6464;BME280;3265;42.694;23.282;2022-09-09T05:24:38;94887.34;;;18.11;98.86
6464;BME280;3265;42.694;23.282;2022-09-09T05:27:05;94887.06;;;18.12;98.34
6464;BME280;3265;42.694;23.282;2022-09-09T05:29:32;94885.50;;;18.17;97.84
6464;BME280;3265;42.694;23.282;2022-09-09T05:32:00;94897.06;;;18.15;98.11
6464;BME280;3265;42.694;23.282;2022-09-09T05:34:26;94903.41;;;18.20;98.68
6464;BME280;3265;42.694;23.282;2022-09-09T05:36:55;94886.31;;;18.22;98.72
6464;BME280;3265;42.694;23.282;2022-09-09T05:39:21;94888.97;;;18.32;97.36
6464;BME280;3265;42.694;23.282;2022-09-09T05:41:48;94891.34;;;18.34;97.23
6464;BME280;3265;42.694;23.282;2022-09-09T05:44:15;94891.34;;;18.34;97.39
6464;BME280;3265;42.694;23.282;2022-09-09T05:46:42;94903.97;;;18.42;96.37
6464;BME280;3265;42.694;23.282;2022-09-09T05:49:10;94899.78;;;18.46;96.04
6464;BME280;3265;42.694;23.282;2022-09-09T05:51:36;94898.00;;;18.51;95.67
6464;BME280;3265;42.694;23.282;2022-09-09T05:54:05;94899.06;;;18.55;95.09
6464;BME280;3265;42.694;23.282;2022-09-09T05:56:31;94898.78;;;18.62;95.02
6464;BME280;3265;42.694;23.282;2022-09-09T05:58:58;94899.06;;;18.70;95.03
6464;BME280;3265;42.694;23.282;2022-09-09T06:01:28;94904.34;;;18.81;93.85
6464;BME280;3265;42.694;23.282;2022-09-09T06:03:55;94922.25;;;18.68;94.00
6464;BME280;3265;42.694;23.282;2022-09-09T06:06:24;94917.75;;;18.64;94.44
6464;BME280;3265;42.694;23.282;2022-09-09T06:08:53;94917.50;;;18.55;94.53
6464;BME280;3265;42.694;23.282;2022-09-09T06:11:23;94917.75;;;18.59;94.59
6464;BME280;3265;42.694;23.282;2022-09-09T06:13:50;94909.06;;;18.63;94.37
6464;BME280;3265;42.694;23.282;2022-09-09T06:16:21;94911.44;;;18.70;93.21
6464;BME280;3265;42.694;23.282;2022-09-09T06:18:49;94915.66;;;18.76;92.63
6464;BME280;3265;42.694;23.282;2022-09-09T06:21:17;94920.66;;;18.83;91.41
6464;BME280;3265;42.694;23.282;2022-09-09T06:23:45;94910.13;;;18.78;91.18
6464;BME280;3265;42.694;23.282;2022-09-09T06:26:15;94912.78;;;18.83;91.66
6464;BME280;3265;42.694;23.282;2022-09-09T06:28:44;94908.28;;;18.83;91.58
6464;BME280;3265;42.694;23.282;2022-09-09T06:31:14;94917.00;;;18.99;90.65
6464;BME280;3265;42.694;23.282;2022-09-09T06:33:42;94913.84;;;19.07;89.89
6464;BME280;3265;42.694;23.282;2022-09-09T06:36:12;94901.19;;;19.09;89.54
6464;BME280;3265;42.694;23.282;2022-09-09T06:38:40;94900.13;;;19.15;89.97
6464;BME280;3265;42.694;23.282;2022-09-09T06:41:08;94903.03;;;19.18;90.28
6464;BME280;3265;42.694;23.282;2022-09-09T06:43:35;94897.72;;;19.28;89.93
6464;BME280;3265;42.694;23.282;2022-09-09T06:46:05;94901.44;;;19.33;90.24
6464;BME280;3265;42.694;23.282;2022-09-09T06:48:33;94906.47;;;19.39;90.39
6464;BME280;3265;42.694;23.282;2022-09-09T06:51:01;94912.53;;;19.45;88.94
6464;BME280;3265;42.694;23.282;2022-09-09T06:53:28;94915.66;;;19.52;88.26
6464;BME280;3265;42.694;23.282;2022-09-09T06:55:56;94919.88;;;19.58;87.58
6464;BME280;3265;42.694;23.282;2022-09-09T06:58:23;94921.94;;;19.66;86.43
6464;BME280;3265;42.694;23.282;2022-09-09T07:00:50;94915.34;;;19.73;86.40
6464;BME280;3265;42.694;23.282;2022-09-09T07:03:18;94918.75;;;19.84;85.32
6464;BME280;3265;42.694;23.282;2022-09-09T07:05:54;94922.44;;;19.88;85.85
6464;BME280;3265;42.694;23.282;2022-09-09T07:08:21;94921.91;;;19.91;86.41
6464;BME280;3265;42.694;23.282;2022-09-09T07:10:48;94920.25;;;20.00;84.84
6464;BME280;3265;42.694;23.282;2022-09-09T07:13:16;94915.78;;;20.01;84.25
6464;BME280;3265;42.694;23.282;2022-09-09T07:15:46;94905.75;;;20.03;83.94
6464;BME280;3265;42.694;23.282;2022-09-09T07:18:13;94909.72;;;20.05;84.15
6464;BME280;3265;42.694;23.282;2022-09-09T07:20:42;94912.88;;;20.07;83.49
6464;BME280;3265;42.694;23.282;2022-09-09T07:23:09;94912.53;;;20.19;83.18
6464;BME280;3265;42.694;23.282;2022-09-09T07:25:37;94901.72;;;20.25;83.18
6464;BME280;3265;42.694;23.282;2022-09-09T07:28:03;94905.91;;;20.36;83.79
6464;BME280;3265;42.694;23.282;2022-09-09T07:30:31;94911.66;;;20.44;82.33
6464;BME280;3265;42.694;23.282;2022-09-09T07:32:58;94905.81;;;20.52;81.47
6464;BME280;3265;42.694;23.282;2022-09-09T07:35:25;94896.47;;;20.64;80.50
6464;BME280;3265;42.694;23.282;2022-09-09T07:37:53;94899.06;;;20.69;79.63
6464;BME280;3265;42.694;23.282;2022-09-09T07:40:20;94904.81;;;20.81;78.92
6464;BME280;3265;42.694;23.282;2022-09-09T07:42:48;94912.38;;;20.93;78.32
6464;BME280;3265;42.694;23.282;2022-09-09T07:45:14;94915.00;;;20.98;78.86
6464;BME280;3265;42.694;23.282;2022-09-09T07:47:41;94915.97;;;21.07;79.34
6464;BME280;3265;42.694;23.282;2022-09-09T07:50:09;94909.25;;;21.25;82.65
6464;BME280;3265;42.694;23.282;2022-09-09T07:52:36;94912.25;;;21.47;79.07
6464;BME280;3265;42.694;23.282;2022-09-09T07:55:05;94910.72;;;21.65;77.53
6464;BME280;3265;42.694;23.282;2022-09-09T07:57:32;94915.06;;;21.79;76.56
6464;BME280;3265;42.694;23.282;2022-09-09T07:59:59;94913.41;;;21.88;75.28
6464;BME280;3265;42.694;23.282;2022-09-09T08:02:25;94906.16;;;21.99;74.90
6464;BME280;3265;42.694;23.282;2022-09-09T08:04:54;94908.19;;;22.07;73.10
6464;BME280;3265;42.694;23.282;2022-09-09T08:07:21;94912.84;;;22.15;72.34
6464;BME280;3265;42.694;23.282;2022-09-09T08:09:48;94909.56;;;22.23;71.71
6464;BME280;3265;42.694;23.282;2022-09-09T08:12:17;94903.59;;;22.36;72.71
6464;BME280;3265;42.694;23.282;2022-09-09T08:14:43;94899.00;;;22.42;72.26
6464;BME280;3265;42.694;23.282;2022-09-09T08:17:10;94908.03;;;22.59;72.53
6464;BME280;3265;42.694;23.282;2022-09-09T08:19:37;94907.56;;;22.76;71.54
6464;BME280;3265;42.694;23.282;2022-09-09T08:22:04;94899.97;;;22.88;72.54
6464;BME280;3265;42.694;23.282;2022-09-09T08:24:31;94906.13;;;23.16;70.45
6464;BME280;3265;42.694;23.282;2022-09-09T08:26:58;94908.03;;;23.29;67.15
6464;BME280;3265;42.694;23.282;2022-09-09T08:29:26;94903.59;;;23.43;67.00
6464;BME280;3265;42.694;23.282;2022-09-09T08:31:55;94898.69;;;23.50;70.75
6464;BME280;3265;42.694;23.282;2022-09-09T08:34:22;94897.03;;;23.68;74.29
6464;BME280;3265;42.694;23.282;2022-09-09T08:36:51;94905.22;;;23.85;67.33
6464;BME280;3265;42.694;23.282;2022-09-09T08:39:20;94909.44;;;24.00;66.57
6464;BME280;3265;42.694;23.282;2022-09-09T08:45:23;94897.75;;;24.28;65.69
6464;BME280;3265;42.694;23.282;2022-09-09T08:48:07;94900.28;;;24.47;67.86
6464;BME280;3265;42.694;23.282;2022-09-09T08:50:40;94894.53;;;24.67;68.86
6464;BME280;3265;42.694;23.282;2022-09-09T08:53:11;94897.25;;;24.89;65.95
6464;BME280;3265;42.694;23.282;2022-09-09T08:55:45;94903.47;;;25.07;63.45
6464;BME280;3265;42.694;23.282;2022-09-09T08:58:15;94904.81;;;25.18;61.40
6464;BME280;3265;42.694;23.282;2022-09-09T09:01:09;94899.72;;;25.30;61.78
6464;BME280;3265;42.694;23.282;2022-09-09T09:03:50;94897.09;;;25.38;59.90
6464;BME280;3265;42.694;23.282;2022-09-09T09:06:31;94904.16;;;25.43;61.12
6464;BME280;3265;42.694;23.282;2022-09-09T09:09:06;94898.03;;;25.56;59.80
6464;BME280;3265;42.694;23.282;2022-09-09T09:11:36;94900.38;;;25.58;59.28
6464;BME280;3265;42.694;23.282;2022-09-09T09:14:09;94903.72;;;25.72;59.16
6464;BME280;3265;42.694;23.282;2022-09-09T09:16:47;94898.47;;;25.89;59.40
6464;BME280;3265;42.694;23.282;2022-09-09T09:19:17;94892.09;;;25.99;57.67
6464;BME280;3265;42.694;23.282;2022-09-09T09:21:50;94893.50;;;25.96;56.99
6464;BME280;3265;42.694;23.282;2022-09-09T09:24:20;94891.63;;;25.97;57.31
6464;BME280;3265;42.694;23.282;2022-09-09T09:26:50;94883.81;;;26.00;61.35
6464;BME280;3265;42.694;23.282;2022-09-09T09:29:19;94892.72;;;26.04;58.94
6464;BME280;3265;42.694;23.282;2022-09-09T09:31:52;94891.81;;;26.09;60.37
6464;BME280;3265;42.694;23.282;2022-09-09T09:34:21;94885.75;;;26.17;58.54
6464;BME280;3265;42.694;23.282;2022-09-09T09:36:53;94885.94;;;26.20;58.47
6464;BME280;3265;42.694;23.282;2022-09-09T09:39:25;94884.22;;;26.33;56.67
6464;BME280;3265;42.694;23.282;2022-09-09T09:41:53;94886.44;;;26.48;57.16
6464;BME280;3265;42.694;23.282;2022-09-09T09:44:26;94870.78;;;26.55;57.64
6464;BME280;3265;42.694;23.282;2022-09-09T09:47:06;94865.56;;;26.67;55.60
6464;BME280;3265;42.694;23.282;2022-09-09T09:49:33;94867.94;;;26.60;56.82
6464;BME280;3265;42.694;23.282;2022-09-09T09:52:01;94867.94;;;26.52;58.11
6464;BME280;3265;42.694;23.282;2022-09-09T09:54:29;94865.25;;;26.43;60.27
6464;BME280;3265;42.694;23.282;2022-09-09T09:57:08;94864.66;;;26.46;58.49
6464;BME280;3265;42.694;23.282;2022-09-09T09:59:36;94857.72;;;26.45;58.27
6464;BME280;3265;42.694;23.282;2022-09-09T10:02:21;94857.44;;;26.55;56.27
6464;BME280;3265;42.694;23.282;2022-09-09T10:05:00;94858.06;;;26.43;56.09
6464;BME280;3265;42.694;23.282;2022-09-09T10:07:27;94865.72;;;26.36;56.84
6464;BME280;3265;42.694;23.282;2022-09-09T10:09:56;94870.06;;;26.24;57.29
6464;BME280;3265;42.694;23.282;2022-09-09T10:12:33;94870.06;;;26.15;57.21
6464;BME280;3265;42.694;23.282;2022-09-09T10:15:09;94875.84;;;26.09;60.00
6464;BME280;3265;42.694;23.282;2022-09-09T10:17:50;94875.03;;;26.00;58.66
6464;BME280;3265;42.694;23.282;2022-09-09T10:20:32;94875.47;;;25.93;59.01
6464;BME280;3265;42.694;23.282;2022-09-09T10:23:11;94879.69;;;25.85;59.21
6464;BME280;3265;42.694;23.282;2022-09-09T10:26:07;94880.56;;;25.81;59.20
6464;BME280;3265;42.694;23.282;2022-09-09T10:28:49;94890.28;;;25.77;59.74
6464;BME280;3265;42.694;23.282;2022-09-09T10:31:24;94881.19;;;25.78;61.00
6464;BME280;3265;42.694;23.282;2022-09-09T10:34:01;94884.47;;;25.75;59.44
6464;BME280;3265;42.694;23.282;2022-09-09T10:36:31;94884.13;;;25.68;60.03
6464;BME280;3265;42.694;23.282;2022-09-09T10:39:01;94882.38;;;25.63;59.99
6464;BME280;3265;42.694;23.282;2022-09-09T10:41:50;94891.59;;;25.57;60.62
6464;BME280;3265;42.694;23.282;2022-09-09T10:44:38;94889.25;;;25.56;61.26
6464;BME280;3265;42.694;23.282;2022-09-09T10:47:22;94883.13;;;25.55;60.91
6464;BME280;3265;42.694;23.282;2022-09-09T10:50:18;94892.38;;;25.58;61.09
6464;BME280;3265;42.694;23.282;2022-09-09T10:52:54;94899.75;;;25.61;61.01
6464;BME280;3265;42.694;23.282;2022-09-09T10:55:27;94891.38;;;25.45;60.79
6464;BME280;3265;42.694;23.282;2022-09-09T10:57:58;94887.22;;;25.30;61.27
6464;BME280;3265;42.694;23.282;2022-09-09T11:00:35;94879.28;;;25.17;63.68
6464;BME280;3265;42.694;23.282;2022-09-09T11:03:04;94884.91;;;25.15;63.09
6464;BME280;3265;42.694;23.282;2022-09-09T11:05:38;94880.38;;;25.16;63.98
6464;BME280;3265;42.694;23.282;2022-09-09T11:08:12;94882.06;;;25.12;64.41
6464;BME280;3265;42.694;23.282;2022-09-09T11:10:45;94865.03;;;25.13;64.68
6464;BME280;3265;42.694;23.282;2022-09-09T11:13:21;94878.56;;;25.25;63.46
6464;BME280;3265;42.694;23.282;2022-09-09T11:15:54;94872.69;;;25.36;63.87
6464;BME280;3265;42.694;23.282;2022-09-09T11:18:35;94871.53;;;25.51;64.21
6464;BME280;3265;42.694;23.282;2022-09-09T11:21:12;94853.88;;;25.64;63.96
6464;BME280;3265;42.694;23.282;2022-09-09T11:23:45;94871.69;;;25.85;62.93
6464;BME280;3265;42.694;23.282;2022-09-09T11:26:18;94862.47;;;26.00;63.18
6464;BME280;3265;42.694;23.282;2022-09-09T11:28:56;94854.50;;;26.09;62.79
6464;BME280;3265;42.694;23.282;2022-09-09T11:31:41;94846.97;;;26.11;62.50
6464;BME280;3265;42.694;23.282;2022-09-09T11:34:23;94833.03;;;26.14;62.89
6464;BME280;3265;42.694;23.282;2022-09-09T11:37:06;94834.28;;;26.08;62.59
6464;BME280;3265;42.694;23.282;2022-09-09T11:39:57;94821.41;;;26.10;62.75
6464;BME280;3265;42.694;23.282;2022-09-09T11:42:29;94820.84;;;26.21;63.35
6464;BME280;3265;42.694;23.282;2022-09-09T11:44:57;94815.53;;;26.30;62.31
6464;BME280;3265;42.694;23.282;2022-09-09T11:47:35;94814.44;;;26.39;62.38
6464;BME280;3265;42.694;23.282;2022-09-09T11:50:09;94792.47;;;26.42;62.42
6464;BME280;3265;42.694;23.282;2022-09-09T11:52:40;94765.03;;;26.42;63.27
6464;BME280;3265;42.694;23.282;2022-09-09T11:55:20;94792.00;;;26.66;62.65
6464;BME280;3265;42.694;23.282;2022-09-09T11:57:57;94791.53;;;26.90;62.44
6464;BME280;3265;42.694;23.282;2022-09-09T12:00:31;94793.34;;;27.24;60.94
6464;BME280;3265;42.694;23.282;2022-09-09T12:02:59;94798.94;;;27.77;59.14
6464;BME280;3265;42.694;23.282;2022-09-09T12:05:36;94797.97;;;28.20;57.25
6464;BME280;3265;42.694;23.282;2022-09-09T12:08:07;94798.81;;;28.53;56.73
6464;BME280;3265;42.694;23.282;2022-09-09T12:10:38;94785.81;;;28.84;56.25
6464;BME280;3265;42.694;23.282;2022-09-09T12:13:14;94779.94;;;28.91;55.84
6464;BME280;3265;42.694;23.282;2022-09-09T12:15:47;94772.88;;;28.86;55.96
6464;BME280;3265;42.694;23.282;2022-09-09T12:18:15;94769.31;;;28.82;55.57
6464;BME280;3265;42.694;23.282;2022-09-09T12:20:54;94774.09;;;28.77;55.85
6464;BME280;3265;42.694;23.282;2022-09-09T12:23:32;94775.94;;;28.97;55.98
6464;BME280;3265;42.694;23.282;2022-09-09T12:26:26;94771.00;;;29.32;55.03
6464;BME280;3265;42.694;23.282;2022-09-09T12:29:02;94755.84;;;29.72;54.14
6464;BME280;3265;42.694;23.282;2022-09-09T12:31:35;94768.03;;;29.81;51.71
6464;BME280;3265;42.694;23.282;2022-09-09T12:34:14;94769.56;;;29.34;52.04
6464;BME280;3265;42.694;23.282;2022-09-09T12:36:43;94767.06;;;28.84;54.12
6464;BME280;3265;42.694;23.282;2022-09-09T12:39:20;94761.63;;;28.60;53.69
6464;BME280;3265;42.694;23.282;2022-09-09T12:41:52;94763.09;;;28.49;54.44
6464;BME280;3265;42.694;23.282;2022-09-09T12:44:23;94767.94;;;28.35;55.40
6464;BME280;3265;42.694;23.282;2022-09-09T12:46:51;94762.59;;;28.14;55.71
6464;BME280;3265;42.694;23.282;2022-09-09T12:49:31;94750.91;;;27.69;57.37
6464;BME280;3265;42.694;23.282;2022-09-09T12:52:02;94747.94;;;27.70;58.90
6464;BME280;3265;42.694;23.282;2022-09-09T12:54:33;94768.03;;;27.97;56.06
6464;BME280;3265;42.694;23.282;2022-09-09T12:57:01;94755.13;;;28.07;54.82
6464;BME280;3265;42.694;23.282;2022-09-09T12:59:36;94750.25;;;28.01;55.38
6464;BME280;3265;42.694;23.282;2022-09-09T13:02:17;94745.34;;;28.03;55.67
6464;BME280;3265;42.694;23.282;2022-09-09T13:04:44;94753.13;;;27.96;55.22
6464;BME280;3265;42.694;23.282;2022-09-09T13:07:12;94744.97;;;27.63;56.69
6464;BME280;3265;42.694;23.282;2022-09-09T13:09:43;94747.97;;;27.24;57.79
6464;BME280;3265;42.694;23.282;2022-09-09T13:12:14;94751.94;;;27.09;58.88
6464;BME280;3265;42.694;23.282;2022-09-09T13:14:43;94744.72;;;27.10;58.82
6464;BME280;3265;42.694;23.282;2022-09-09T13:17:22;94733.22;;;27.18;59.23
6464;BME280;3265;42.694;23.282;2022-09-09T13:19:50;94727.00;;;26.96;59.81
6464;BME280;3265;42.694;23.282;2022-09-09T13:22:22;94719.34;;;26.86;60.87
6464;BME280;3265;42.694;23.282;2022-09-09T13:25:00;94711.66;;;26.76;61.12
6464;BME280;3265;42.694;23.282;2022-09-09T13:27:31;94711.66;;;26.76;61.34
6464;BME280;3265;42.694;23.282;2022-09-09T13:29:59;94702.72;;;26.72;60.52
6464;BME280;3265;42.694;23.282;2022-09-09T13:32:28;94705.72;;;26.62;60.81
6464;BME280;3265;42.694;23.282;2022-09-09T13:34:58;94697.28;;;26.52;61.32
6464;BME280;3265;42.694;23.282;2022-09-09T13:37:32;94701.19;;;26.54;60.77